Time;durP1;ratioP1;P1;durP2;ratioP2;P2;SDS_P1;SDS_P2;PMS_P1;PMS_P2;Temp;Humidity;BMP_temperature;BMP_pressure;BME280_temperature;BME280_humidity;BME280_pressure;Samples;Min_cycle;Max_cycle;Signal;HPM_P1;HPM_P2
2020/12/06 00:01:05;;;;;;;43.30;29.70;;;-0.80;99.90;;;;;;5023286;28;20045;-81
2020/12/06 00:03:36;;;;;;;55.72;30.90;;;-0.80;99.90;;;;;;5041930;28;20037;-81
2020/12/06 00:06:05;;;;;;;62.22;35.42;;;-0.80;99.90;;;;;;5041120;28;20475;-82
2020/12/06 00:08:52;;;;;;;65.28;36.92;;;-0.80;99.90;;;;;;5030617;28;20056;-82
2020/12/06 00:11:18;;;;;;;56.30;33.65;;;-0.70;99.90;;;;;;5045527;28;20087;-81
2020/12/06 00:13:45;;;;;;;54.63;31.52;;;-0.70;99.90;;;;;;5031075;28;20040;-82
2020/12/06 00:16:15;;;;;;;52.80;31.13;;;-0.70;99.90;;;;;;5045607;28;20044;-82
2020/12/06 00:18:43;;;;;;;48.85;28.48;;;-0.80;99.90;;;;;;5043967;28;20041;-82
2020/12/06 00:21:29;;;;;;;56.55;32.22;;;-0.80;99.90;;;;;;5030940;28;20511;-82
2020/12/06 00:23:55;;;;;;;47.88;28.40;;;-0.90;99.90;;;;;;5046992;28;20033;-82
2020/12/06 00:26:22;;;;;;;43.28;27.33;;;-0.90;99.90;;;;;;5042337;28;20422;-82
2020/12/06 00:28:49;;;;;;;52.13;30.92;;;-0.90;99.90;;;;;;5031361;28;20210;-82
2020/12/06 00:31:16;;;;;;;53.55;29.42;;;-0.90;99.90;;;;;;5038890;28;20122;-82
2020/12/06 00:33:41;;;;;;;49.08;28.10;;;-1.00;99.90;;;;;;5024923;28;20233;-82
2020/12/06 00:36:11;;;;;;;51.60;29.58;;;-1.00;99.90;;;;;;5035807;28;20493;-82
2020/12/06 00:38:57;;;;;;;43.30;25.73;;;-1.00;99.90;;;;;;5040302;28;20454;-82
2020/12/06 00:41:23;;;;;;;42.40;25.73;;;-1.00;99.90;;;;;;5032299;28;20029;-83
2020/12/06 00:43:54;;;;;;;46.63;27.95;;;-1.10;99.90;;;;;;5035132;28;20048;-82
2020/12/06 00:46:23;;;;;;;42.20;26.60;;;-1.10;99.90;;;;;;5046636;28;20040;-82
2020/12/06 00:48:49;;;;;;;46.67;27.70;;;-1.10;99.90;;;;;;5046452;28;20093;-82
2020/12/06 00:51:15;;;;;;;41.55;25.88;;;-1.10;99.90;;;;;;5001128;28;20407;-82
2020/12/06 00:53:42;;;;;;;43.72;26.40;;;-1.10;99.90;;;;;;5039579;28;20037;-82
2020/12/06 00:56:28;;;;;;;48.67;27.63;;;-1.10;99.90;;;;;;5028299;28;20060;-82
2020/12/06 00:59:14;;;;;;;42.85;25.45;;;-1.10;99.90;;;;;;5032523;28;20056;-82
2020/12/06 01:02:00;;;;;;;45.35;25.77;;;-1.20;99.90;;;;;;5031262;28;20048;-82
2020/12/06 01:04:29;;;;;;;61.47;32.25;;;-1.10;99.90;;;;;;5046953;28;20127;-82
2020/12/06 01:06:58;;;;;;;47.70;29.13;;;-1.20;99.90;;;;;;5046491;28;20513;-82
2020/12/06 01:09:26;;;;;;;43.67;26.33;;;-1.20;99.90;;;;;;5043929;28;20115;-82
2020/12/06 01:11:52;;;;;;;44.97;25.63;;;-1.20;99.90;;;;;;5029130;28;20128;-82
2020/12/06 01:14:38;;;;;;;54.80;30.58;;;-1.20;99.90;;;;;;5029601;28;20037;-82
2020/12/06 01:17:06;;;;;;;48.20;28.50;;;-1.20;99.90;;;;;;5048965;28;20075;-81
2020/12/06 01:19:32;;;;;;;48.08;27.42;;;-1.20;99.90;;;;;;5046913;28;20038;-81
2020/12/06 01:21:58;;;;;;;46.55;25.20;;;-1.30;99.90;;;;;;5038060;28;20040;-81
2020/12/06 01:24:24;;;;;;;50.03;26.20;;;-1.30;99.90;;;;;;5030695;28;20382;-81
2020/12/06 01:26:50;;;;;;;42.88;25.75;;;-1.30;99.90;;;;;;5040299;28;20037;-79
2020/12/06 01:29:16;;;;;;;44.70;26.67;;;-1.40;99.90;;;;;;5046250;28;20037;-79
2020/12/06 01:32:02;;;;;;;59.08;30.13;;;-1.40;99.90;;;;;;5029200;28;20083;-80
2020/12/06 01:34:28;;;;;;;51.45;28.70;;;-1.40;99.90;;;;;;5050553;28;20032;-80
2020/12/06 01:36:53;;;;;;;58.03;33.92;;;-0.60;99.90;;;;;;5047375;28;20036;-80
2020/12/06 01:39:20;;;;;;;49.08;31.33;;;-1.30;99.90;;;;;;5033663;28;20055;-80
2020/12/06 01:41:46;;;;;;;47.90;27.90;;;-1.30;99.90;;;;;;5049758;28;20036;-80
2020/12/06 01:44:12;;;;;;;55.83;27.33;;;-1.20;99.90;;;;;;5050686;28;20068;-79
2020/12/06 01:46:38;;;;;;;49.55;28.63;;;-1.30;99.90;;;;;;5036720;28;20186;-81
2020/12/06 01:49:08;;;;;;;47.42;26.63;;;-1.30;99.90;;;;;;5031047;28;20442;-80
2020/12/06 01:51:35;;;;;;;40.38;25.95;;;-1.30;99.90;;;;;;5028342;28;20037;-80
2020/12/06 01:54:23;;;;;;;51.33;29.27;;;-1.30;99.90;;;;;;5029300;28;20073;-81
2020/12/06 01:56:49;;;;;;;44.95;27.05;;;-1.30;99.90;;;;;;5049412;28;20547;-81
2020/12/06 01:59:34;;;;;;;44.22;25.55;;;-1.30;99.90;;;;;;5038728;28;20048;-81
2020/12/06 02:02:05;;;;;;;51.33;29.52;;;-1.30;99.90;;;;;;5045233;28;20040;-81
2020/12/06 02:04:31;;;;;;;49.00;28.80;;;-1.30;99.90;;;;;;5047249;28;20116;-81
2020/12/06 02:06:58;;;;;;;43.80;26.02;;;-1.40;99.90;;;;;;5035024;28;20037;-82
2020/12/06 02:09:46;;;;;;;49.33;28.83;;;-1.30;99.90;;;;;;5038113;28;20398;-81
2020/12/06 02:12:12;;;;;;;52.67;29.33;;;-1.40;99.90;;;;;;5038945;28;20033;-82
2020/12/06 02:14:38;;;;;;;48.28;29.08;;;-1.30;99.90;;;;;;5024394;28;20049;-80
2020/12/06 02:17:04;;;;;;;53.45;31.75;;;-1.30;99.90;;;;;;5045387;28;20114;-81
2020/12/06 02:19:31;;;;;;;55.65;29.90;;;-1.30;99.90;;;;;;5052681;28;20036;-81
2020/12/06 02:21:57;;;;;;;44.80;26.75;;;-1.20;99.90;;;;;;5037214;28;20041;-81
2020/12/06 02:24:22;;;;;;;66.70;33.85;;;-1.20;99.90;;;;;;5053070;28;20029;-82
2020/12/06 02:26:50;;;;;;;54.38;30.00;;;-1.20;99.90;;;;;;5052599;28;20068;-81
2020/12/06 02:29:36;;;;;;;54.20;31.58;;;-1.30;99.90;;;;;;5019968;28;20049;-82
2020/12/06 02:32:02;;;;;;;57.30;31.85;;;-1.20;99.90;;;;;;5043685;28;20041;-81
2020/12/06 02:34:28;;;;;;;55.65;30.63;;;-1.20;99.90;;;;;;5052135;28;20116;-80
2020/12/06 02:36:53;;;;;;;50.13;28.35;;;-1.20;99.90;;;;;;5048975;28;20494;-81
2020/12/06 02:39:19;;;;;;;57.78;29.80;;;-1.20;99.90;;;;;;5032935;28;20040;-81
2020/12/06 02:41:45;;;;;;;49.33;29.50;;;-1.30;99.90;;;;;;5050799;28;20037;-81
2020/12/06 02:44:13;;;;;;;55.97;31.80;;;-1.30;99.90;;;;;;5035147;28;20037;-81
2020/12/06 02:46:40;;;;;;;61.25;33.92;;;-1.30;99.90;;;;;;5024271;28;20033;-82
2020/12/06 02:49:06;;;;;;;57.05;32.53;;;-1.30;99.90;;;;;;5049781;28;20049;-82
2020/12/06 02:51:33;;;;;;;63.70;34.45;;;-1.30;99.90;;;;;;5033636;28;20542;-81
2020/12/06 02:54:19;;;;;;;63.55;35.45;;;-1.30;99.90;;;;;;5027809;28;20049;-81
2020/12/06 02:56:44;;;;;;;71.43;36.80;;;-1.30;99.90;;;;;;5052213;28;20123;-82
2020/12/06 02:59:30;;;;;;;81.28;39.20;;;-1.20;99.90;;;;;;5050154;28;20041;-82
2020/12/06 03:02:17;;;;;;;73.88;38.78;;;-1.20;99.90;;;;;;5034755;28;20435;-81
2020/12/06 03:05:02;;;;;;;78.63;41.83;;;-1.20;99.90;;;;;;5020124;28;20053;-81
2020/12/06 03:07:48;;;;;;;60.80;33.65;;;-1.10;99.90;;;;;;5030176;28;20057;-81
2020/12/06 03:10:14;;;;;;;67.10;36.00;;;-1.10;99.90;;;;;;5045648;28;20068;-81
2020/12/06 03:12:40;;;;;;;85.40;43.10;;;-1.10;99.90;;;;;;5041382;28;20033;-82
2020/12/06 03:15:26;;;;;;;91.07;44.92;;;-1.00;99.90;;;;;;5025836;28;20394;-82
2020/12/06 03:18:12;;;;;;;65.28;36.70;;;-1.00;99.90;;;;;;5036467;28;20063;-81
2020/12/06 03:20:38;;;;;;;66.40;36.10;;;-0.90;99.90;;;;;;5052867;28;20108;-81
2020/12/06 03:23:04;;;;;;;62.50;33.10;;;-0.90;99.90;;;;;;5041182;28;20045;-80
2020/12/06 03:25:30;;;;;;;68.22;36.97;;;-0.90;99.90;;;;;;5053336;28;20036;-79
2020/12/06 03:27:56;;;;;;;59.05;30.90;;;-1.00;99.90;;;;;;5050885;28;20052;-80
2020/12/06 03:30:22;;;;;;;65.57;35.47;;;-1.00;99.90;;;;;;5051697;28;20036;-80
2020/12/06 03:32:47;;;;;;;74.93;40.22;;;-1.00;99.90;;;;;;5028106;28;20037;-79
2020/12/06 03:35:13;;;;;;;60.20;33.55;;;-1.00;99.90;;;;;;5044863;28;20040;-80
2020/12/06 03:37:39;;;;;;;64.72;34.58;;;-1.00;99.90;;;;;;5033504;28;20068;-80
2020/12/06 03:40:05;;;;;;;56.13;29.65;;;-1.00;99.90;;;;;;5043207;28;20071;-80
2020/12/06 03:42:51;;;;;;;55.70;30.30;;;-1.00;99.90;;;;;;5034027;28;20780;-80
2020/12/06 03:45:18;;;;;;;59.38;32.85;;;-1.00;99.90;;;;;;5046233;28;20455;-80
2020/12/06 03:48:03;;;;;;;60.33;33.90;;;-1.00;99.90;;;;;;5035757;28;20310;-80
2020/12/06 03:50:49;;;;;;;62.97;34.30;;;-1.00;99.90;;;;;;5025925;28;20391;-80
2020/12/06 03:53:15;;;;;;;69.13;38.92;;;-1.00;99.90;;;;;;5047901;28;20115;-81
2020/12/06 03:55:41;;;;;;;63.42;34.00;;;-1.00;99.90;;;;;;5049554;28;20040;-80
2020/12/06 03:58:07;;;;;;;61.05;34.28;;;-0.90;99.90;;;;;;5049863;28;20037;-81
2020/12/06 04:00:36;;;;;;;;;;;-0.90;99.90;;;;;;5046915;28;20111;-81
2020/12/06 04:03:02;;;;;;;70.65;36.20;;;-0.90;99.90;;;;;;5043564;28;19917;-81
2020/12/06 04:05:28;;;;;;;71.68;37.63;;;-0.90;99.90;;;;;;5041385;28;20041;-80
2020/12/06 04:07:54;;;;;;;57.67;35.00;;;-0.90;99.90;;;;;;5044591;28;20045;-80
2020/12/06 04:10:21;;;;;;;63.03;34.60;;;-0.90;99.90;;;;;;5051708;28;20042;-80
2020/12/06 04:12:47;;;;;;;65.25;35.42;;;-0.90;99.90;;;;;;5051938;28;20040;-79
2020/12/06 04:15:13;;;;;;;73.80;38.05;;;-0.90;99.90;;;;;;5046303;28;20034;-79
2020/12/06 04:17:39;;;;;;;69.10;37.63;;;-0.90;99.90;;;;;;5048953;28;20045;-79
2020/12/06 04:20:25;;;;;;;75.27;37.83;;;-0.90;99.90;;;;;;5019421;28;20402;-81
2020/12/06 04:22:51;;;;;;;82.57;41.33;;;-0.80;99.90;;;;;;5050944;28;20115;-81
2020/12/06 04:25:36;;;;;;;76.00;41.72;;;-0.80;99.90;;;;;;5032093;28;20045;-81
2020/12/06 04:28:22;;;;;;;77.55;40.92;;;-0.70;99.90;;;;;;5018664;28;20056;-81
2020/12/06 04:30:48;;;;;;;81.93;42.05;;;-0.70;99.90;;;;;;5027820;28;20037;-81
2020/12/06 04:33:14;;;;;;;81.93;42.03;;;-0.70;99.90;;;;;;5035776;28;20043;-81
2020/12/06 04:35:39;;;;;;;80.90;42.53;;;-0.70;99.90;;;;;;5052430;28;20029;-81
2020/12/06 04:38:25;;;;;;;80.45;41.65;;;-0.70;99.90;;;;;;5020706;28;20136;-81
2020/12/06 04:41:11;;;;;;;77.60;42.05;;;-0.70;99.90;;;;;;5006440;28;20052;-81
2020/12/06 04:43:38;;;;;;;81.38;41.45;;;-0.60;99.90;;;;;;5038656;28;20115;-79
2020/12/06 04:46:04;;;;;;;71.80;35.67;;;-0.60;99.90;;;;;;5031994;28;20033;-78
2020/12/06 04:49:03;;;;;;;75.97;40.95;;;-0.60;99.90;;;;;;5045006;28;20038;-78
2020/12/06 04:51:54;;;;;;;71.70;38.17;;;-0.70;99.90;;;;;;5028961;28;20038;-80
2020/12/06 04:54:41;;;;;;;72.20;39.50;;;-0.70;99.90;;;;;;5039804;28;20037;-82
2020/12/06 04:57:10;;;;;;;84.68;43.17;;;-0.70;99.90;;;;;;5041989;28;20094;-82
2020/12/06 05:00:10;;;;;;;75.10;36.55;;;-0.70;99.90;;;;;;5018260;28;20044;-79
2020/12/06 05:02:41;;;;;;;74.47;37.58;;;-0.70;99.90;;;;;;5049309;28;20124;-80
2020/12/06 05:05:07;;;;;;;70.57;36.85;;;-0.70;99.90;;;;;;5047059;28;20033;-80
2020/12/06 05:07:34;;;;;;;60.42;32.05;;;-0.70;99.90;;;;;;5041235;28;20458;-81
2020/12/06 05:10:21;;;;;;;66.30;35.92;;;-0.80;99.90;;;;;;5031780;28;20041;-81
2020/12/06 05:13:08;;;;;;;61.50;30.75;;;-0.80;99.90;;;;;;5029595;28;20056;-81
2020/12/06 05:15:34;;;;;;;59.47;32.20;;;-0.90;99.90;;;;;;5037360;28;20040;-81
2020/12/06 05:18:01;;;;;;;71.65;36.80;;;-0.90;99.90;;;;;;5035124;28;20095;-81
2020/12/06 05:20:27;;;;;;;65.53;35.28;;;-1.00;99.90;;;;;;5050152;28;20155;-81
2020/12/06 05:22:53;;;;;;;68.10;37.08;;;-1.00;99.90;;;;;;5036045;28;20037;-81
2020/12/06 05:25:40;;;;;;;75.77;38.53;;;-1.00;99.90;;;;;;5022365;28;20048;-80
2020/12/06 05:28:26;;;;;;;95.25;45.88;;;-1.00;99.90;;;;;;5036432;28;20049;-81
2020/12/06 05:30:53;;;;;;;79.18;41.05;;;-1.00;99.90;;;;;;5049888;28;20395;-80
2020/12/06 05:33:39;;;;;;;69.00;37.10;;;-0.90;99.90;;;;;;5026772;28;20041;-79
2020/12/06 05:36:25;;;;;;;70.03;36.63;;;-0.80;99.90;;;;;;5019129;28;20045;-80
2020/12/06 05:38:51;;;;;;;75.45;38.05;;;-0.90;99.90;;;;;;5051887;28;20040;-81
2020/12/06 05:41:17;;;;;;;79.15;39.22;;;-0.90;99.90;;;;;;5051126;28;20068;-81
2020/12/06 05:43:42;;;;;;;;;;;-0.90;99.90;;;;;;5054782;28;20477;-79
2020/12/06 05:46:16;;;;;;;77.25;38.08;;;-1.00;99.90;;;;;;5052610;28;19928;-80
2020/12/06 05:48:43;;;;;;;73.63;36.97;;;-1.00;99.90;;;;;;5040160;28;20045;-80
2020/12/06 05:51:09;;;;;;;63.25;34.88;;;-1.00;99.90;;;;;;5023033;28;20084;-78
2020/12/06 05:53:36;;;;;;;69.35;35.90;;;-1.00;99.90;;;;;;5051654;28;20485;-80
2020/12/06 05:56:21;;;;;;;74.70;38.03;;;-1.00;99.90;;;;;;5037905;28;20135;-80
2020/12/06 05:58:50;;;;;;;82.45;42.05;;;-1.00;99.90;;;;;;5031858;28;20121;-80
2020/12/06 06:01:18;;;;;;;81.80;44.28;;;-1.00;99.90;;;;;;5046251;28;20132;-80
2020/12/06 06:03:47;;;;;;;98.65;48.17;;;-1.00;99.90;;;;;;5034248;28;20120;-79
2020/12/06 06:06:39;;;;;;;123.10;53.33;;;-0.90;99.90;;;;;;5019296;28;20041;-78
2020/12/06 06:09:05;;;;;;;107.22;51.20;;;-0.80;99.90;;;;;;5040378;28;20044;-78
2020/12/06 06:11:36;;;;;;;107.18;53.28;;;-0.80;99.90;;;;;;5041623;28;20108;-79
2020/12/06 06:14:08;;;;;;;88.82;44.90;;;-0.70;99.90;;;;;;5027771;28;20049;-79
2020/12/06 06:16:35;;;;;;;90.63;44.60;;;-0.70;99.90;;;;;;5046963;28;20036;-78
2020/12/06 06:19:22;;;;;;;84.90;43.92;;;-0.70;99.90;;;;;;5031685;28;20133;-78
2020/12/06 06:21:48;;;;;;;78.20;39.72;;;-0.70;99.90;;;;;;5038698;28;20527;-78
2020/12/06 06:24:19;;;;;;;85.80;43.90;;;-0.70;99.90;;;;;;5054849;28;20044;-79
2020/12/06 06:26:47;;;;;;;99.47;46.83;;;-0.70;99.90;;;;;;5052837;28;20390;-79
2020/12/06 06:29:15;;;;;;;100.20;47.33;;;-0.70;99.90;;;;;;5052122;28;20483;-79
2020/12/06 06:31:47;;;;;;;96.93;48.00;;;-0.60;99.90;;;;;;5035494;28;20052;-78
2020/12/06 06:34:14;;;;;;;91.55;46.17;;;-0.60;99.90;;;;;;5026447;28;20483;-78
2020/12/06 06:36:44;;;;;;;89.22;46.45;;;-0.50;99.90;;;;;;5033964;28;20088;-78
2020/12/06 06:39:16;;;;;;;83.68;43.78;;;-0.50;99.90;;;;;;5025195;28;20045;-78
2020/12/06 06:42:07;;;;;;;82.05;42.38;;;-0.40;99.90;;;;;;5036561;28;20041;-78
2020/12/06 06:45:02;;;;;;;91.82;44.58;;;-0.40;99.90;;;;;;5020999;28;20048;-79
2020/12/06 06:47:49;;;;;;;79.78;39.22;;;-0.40;99.90;;;;;;5009489;28;20091;-79
2020/12/06 06:50:15;;;;;;;82.38;42.60;;;-0.30;99.90;;;;;;5045798;28;20064;-79
2020/12/06 06:52:41;;;;;;;;;;;-0.30;99.90;;;;;;5042862;28;20454;-78
2020/12/06 06:55:08;;;;;;;92.50;43.58;;;-0.30;99.90;;;;;;5048107;28;19916;-79
2020/12/06 06:57:34;;;;;;;83.50;41.35;;;-0.20;99.90;;;;;;5048756;28;20037;-79
2020/12/06 07:00:29;;;;;;;80.03;40.20;;;-0.20;99.90;;;;;;5037605;28;20076;-80
2020/12/06 07:02:55;;;;;;;91.80;47.33;;;-0.20;99.90;;;;;;5051461;28;20403;-79
2020/12/06 07:05:21;;;;;;;80.22;43.92;;;-0.10;99.90;;;;;;5029529;28;20033;-79
2020/12/06 07:07:52;;;;;;;93.15;45.10;;;-0.10;99.90;;;;;;5040945;28;20387;-79
2020/12/06 07:10:39;;;;;;;95.78;45.40;;;0.00;99.90;;;;;;5017983;28;20037;-79
2020/12/06 07:13:25;;;;;;;88.15;44.08;;;0.00;99.90;;;;;;5033649;28;20079;-78
2020/12/06 07:16:11;;;;;;;83.00;41.40;;;0.10;99.90;;;;;;5032037;28;20056;-78
2020/12/06 07:18:38;;;;;;;78.80;40.97;;;0.10;99.90;;;;;;5033017;28;20048;-78
2020/12/06 07:21:31;;;;;;;78.22;41.95;;;0.10;99.90;;;;;;5033693;28;20053;-77
2020/12/06 07:23:57;;;;;;;87.25;43.47;;;0.10;99.90;;;;;;5046785;28;20025;-79
2020/12/06 07:26:22;;;;;;;;;;;0.10;99.90;;;;;;5050395;28;20043;-78
2020/12/06 07:28:50;;;;;;;80.45;39.05;;;0.10;99.90;;;;;;5034349;28;20019;-78
2020/12/06 07:31:17;;;;;;;69.38;38.63;;;0.10;99.90;;;;;;5044446;28;20041;-77
2020/12/06 07:33:43;;;;;;;74.60;40.28;;;0.30;99.90;;;;;;5054114;28;20475;-77
2020/12/06 07:36:09;;;;;;;67.88;38.95;;;0.10;99.90;;;;;;5052356;28;20579;-78
2020/12/06 07:38:36;;;;;;;71.45;37.95;;;0.10;99.90;;;;;;5050779;28;20113;-79
2020/12/06 07:41:02;;;;;;;66.00;36.63;;;0.10;99.90;;;;;;5046599;28;20037;-78
2020/12/06 07:43:29;;;;;;;62.83;34.80;;;0.10;99.90;;;;;;5052995;28;20033;-79
2020/12/06 07:46:17;;;;;;;64.70;33.90;;;0.10;99.90;;;;;;5029195;28;20048;-79
2020/12/06 07:48:43;;;;;;;61.58;32.97;;;0.00;99.90;;;;;;5051090;28;20102;-78
2020/12/06 07:51:10;;;;;;;59.70;32.83;;;0.00;99.90;;;;;;5049954;28;20072;-79
2020/12/06 07:53:52;;;;;;;67.55;35.58;;;0.00;99.90;;;;;;5024222;28;20040;-79
2020/12/06 07:56:23;;;;;;;65.68;35.10;;;-0.10;99.90;;;;;;5044642;28;20049;-79
2020/12/06 07:59:11;;;;;;;71.88;36.55;;;-0.10;99.90;;;;;;5042344;28;20486;-80
2020/12/06 08:01:38;;;;;;;67.47;34.72;;;-0.10;99.90;;;;;;5045830;28;20042;-81
2020/12/06 08:04:05;;;;;;;64.93;35.35;;;-0.20;99.90;;;;;;5042262;28;20087;-81
2020/12/06 08:06:54;;;;;;;72.70;38.83;;;-0.10;99.90;;;;;;5028153;28;20053;-80
2020/12/06 08:09:43;;;;;;;71.38;36.08;;;-0.10;99.90;;;;;;5019646;28;20483;-80
2020/12/06 08:12:11;;;;;;;69.45;36.95;;;-0.20;99.90;;;;;;5048874;28;20461;-80
2020/12/06 08:14:37;;;;;;;73.03;40.65;;;-0.10;99.90;;;;;;5025756;28;20033;-80
2020/12/06 08:17:04;;;;;;;95.47;44.53;;;-0.10;99.90;;;;;;5048903;28;20044;-80
2020/12/06 08:19:30;;;;;;;86.30;45.40;;;-0.10;99.90;;;;;;5049987;28;20033;-81
2020/12/06 08:22:03;;;;;;;93.03;45.97;;;0.00;99.90;;;;;;5018663;28;20033;-81
2020/12/06 08:24:31;;;;;;;90.63;46.00;;;0.10;99.90;;;;;;5049075;28;20033;-81
2020/12/06 08:26:58;;;;;;;92.18;44.42;;;0.10;99.90;;;;;;5047349;28;20115;-80
2020/12/06 08:29:42;;;;;;;93.53;44.50;;;0.20;99.90;;;;;;5050184;28;20064;-80
2020/12/06 08:32:11;;;;;;;85.70;43.75;;;0.30;99.90;;;;;;5054083;28;20037;-80
2020/12/06 08:34:38;;;;;;;97.47;45.28;;;0.30;99.90;;;;;;5039371;28;20475;-80
2020/12/06 08:37:20;;;;;;;89.05;45.75;;;0.30;99.90;;;;;;5029945;28;20119;-80
2020/12/06 08:39:47;;;;;;;94.45;49.25;;;0.40;99.90;;;;;;5041584;28;20349;-78
2020/12/06 08:42:20;;;;;;;91.30;46.08;;;0.50;99.90;;;;;;5045163;28;20033;-80
2020/12/06 08:44:59;;;;;;;92.00;45.10;;;0.50;99.90;;;;;;5050784;28;20087;-80
2020/12/06 08:47:27;;;;;;;79.82;42.25;;;0.60;99.90;;;;;;5047717;28;20035;-80
2020/12/06 08:50:11;;;;;;;76.80;38.63;;;0.70;99.90;;;;;;5051077;28;20033;-80
2020/12/06 08:52:56;;;;;;;85.28;42.10;;;0.70;99.90;;;;;;5023181;28;20065;-80
2020/12/06 08:55:30;;;;;;;77.82;39.70;;;0.90;99.90;;;;;;5031747;28;20454;-79
2020/12/06 08:58:29;;;;;;;70.32;37.10;;;0.80;99.90;;;;;;5022441;28;20429;-79
2020/12/06 09:01:15;;;;;;;71.60;36.20;;;0.80;99.90;;;;;;5031648;28;20616;-79
2020/12/06 09:03:40;;;;;;;73.80;40.08;;;0.90;99.90;;;;;;5043264;28;20118;-80
2020/12/06 09:06:14;;;;;;;75.18;38.17;;;0.90;99.90;;;;;;5030982;28;20037;-80
2020/12/06 09:08:59;;;;;;;70.35;37.05;;;1.00;99.90;;;;;;5042184;28;20049;-80
2020/12/06 09:11:25;;;;;;;76.15;41.55;;;1.00;99.90;;;;;;5057202;28;20389;-81
2020/12/06 09:13:51;;;;;;;86.68;40.95;;;1.10;99.90;;;;;;5020156;28;20069;-79
2020/12/06 09:16:17;;;;;;;66.18;34.88;;;1.10;99.90;;;;;;5056636;28;20033;-79
2020/12/06 09:18:43;;;;;;;70.72;38.40;;;1.20;99.90;;;;;;5050791;28;20045;-79
2020/12/06 09:21:09;;;;;;;68.82;36.00;;;1.30;99.90;;;;;;5056591;28;20492;-79
2020/12/06 09:23:36;;;;;;;67.70;35.85;;;1.30;99.90;;;;;;5056206;28;20033;-81
2020/12/06 09:26:04;;;;;;;65.22;35.00;;;1.20;99.90;;;;;;5038380;28;20068;-80
2020/12/06 09:28:30;;;;;;;58.10;32.40;;;1.30;99.90;;;;;;5057227;28;20033;-79
2020/12/06 09:31:21;;;;;;;65.38;36.47;;;1.40;99.90;;;;;;5022321;28;20048;-81
2020/12/06 09:33:47;;;;;;;56.38;33.42;;;1.40;99.90;;;;;;5054531;28;20041;-81
2020/12/06 09:36:32;;;;;;;71.07;36.42;;;1.50;99.90;;;;;;5014851;28;20142;-81
2020/12/06 09:38:58;;;;;;;63.63;34.55;;;1.50;99.90;;;;;;5033937;28;20611;-80
2020/12/06 09:41:47;;;;;;;56.90;32.88;;;1.40;99.90;;;;;;5057137;28;20068;-80
2020/12/06 09:44:13;;;;;;;56.90;32.25;;;1.70;99.90;;;;;;5057163;28;20029;-79
2020/12/06 09:46:39;;;;;;;57.75;30.20;;;1.70;99.90;;;;;;5057355;28;20343;-78
2020/12/06 09:49:06;;;;;;;52.58;31.30;;;1.80;99.90;;;;;;5034223;28;20048;-80
2020/12/06 09:51:32;;;;;;;56.40;31.30;;;1.80;99.90;;;;;;5033865;28;20497;-80
2020/12/06 09:53:58;;;;;;;53.42;30.13;;;1.80;99.90;;;;;;5036665;28;20065;-82
2020/12/06 09:56:31;;;;;;;53.78;30.88;;;1.90;99.90;;;;;;5015427;28;20124;-82
2020/12/06 09:59:16;;;;;;;59.03;31.05;;;2.00;99.90;;;;;;5042138;28;20049;-82
2020/12/06 10:01:44;;;;;;;53.42;30.85;;;2.00;99.90;;;;;;5035990;28;20048;-82
2020/12/06 10:04:10;;;;;;;50.28;30.48;;;2.00;99.90;;;;;;5039117;28;20502;-79
2020/12/06 10:06:59;;;;;;;46.65;27.70;;;2.10;99.90;;;;;;5028307;28;20471;-77
2020/12/06 10:09:25;;;;;;;50.78;26.88;;;2.10;99.90;;;;;;5038953;28;20033;-80
2020/12/06 10:11:51;;;;;;;;;;;2.20;99.90;;;;;;5042038;28;20060;-80
2020/12/06 10:14:36;;;;;;;55.28;29.83;;;2.20;99.90;;;;;;5052972;28;19955;-81
2020/12/06 10:17:02;;;;;;;49.35;28.38;;;2.40;99.90;;;;;;5057352;28;20072;-80
2020/12/06 10:19:29;;;;;;;46.92;27.90;;;2.40;99.90;;;;;;5054226;28;20393;-80
2020/12/06 10:22:15;;;;;;;53.10;28.20;;;2.50;99.90;;;;;;5023364;28;20045;-80
2020/12/06 10:24:41;;;;;;;44.60;25.65;;;2.60;99.90;;;;;;5025298;28;20034;-81
2020/12/06 10:27:07;;;;;;;48.00;26.95;;;2.70;99.90;;;;;;5047068;28;20130;-80
2020/12/06 10:29:32;;;;;;;49.60;27.77;;;2.80;99.90;;;;;;5045058;28;20437;-81
2020/12/06 10:32:18;;;;;;;46.53;26.63;;;2.80;99.90;;;;;;5019954;28;20068;-80
2020/12/06 10:34:44;;;;;;;43.47;26.10;;;2.90;99.90;;;;;;5049207;28;20485;-80
2020/12/06 10:37:30;;;;;;;43.55;27.35;;;3.00;99.90;;;;;;5038931;28;20525;-81
2020/12/06 10:40:14;;;;;;;45.25;25.98;;;3.00;99.90;;;;;;5054153;28;20079;-80
2020/12/06 10:43:18;;;;;;;44.92;26.67;;;3.10;99.90;;;;;;5032793;28;20219;-81
2020/12/06 10:46:01;;;;;;;44.42;25.98;;;3.20;99.90;;;;;;5047317;28;20036;-80
2020/12/06 10:49:51;;;;;;;40.85;25.15;;;3.20;99.90;;;;;;4965181;28;20043;-81
2020/12/06 10:52:31;;;;;;;42.65;24.50;;;3.30;99.90;;;;;;4951524;28;20050;-83
2020/12/06 10:55:10;;;;;;;42.50;23.70;;;3.40;99.90;;;;;;4971474;28;20073;-81
2020/12/06 10:57:37;;;;;;;40.72;22.92;;;3.40;99.90;;;;;;4974514;28;20040;-81
2020/12/06 11:00:05;;;;;;;47.88;26.23;;;3.50;99.90;;;;;;4970765;28;20063;-80
2020/12/06 11:02:31;;;;;;;42.78;24.08;;;3.50;99.90;;;;;;4969944;28;20053;-81
2020/12/06 11:04:58;;;;;;;43.58;24.95;;;3.60;99.90;;;;;;4976658;28;20051;-82
2020/12/06 11:07:24;;;;;;;44.40;24.52;;;3.70;99.90;;;;;;5045757;28;20049;-81
2020/12/06 11:10:09;;;;;;;45.10;24.17;;;3.80;99.90;;;;;;5056582;28;20127;-82
2020/12/06 11:12:35;;;;;;;43.00;24.95;;;3.90;99.90;;;;;;5031038;28;20462;-81
2020/12/06 11:15:21;;;;;;;44.20;25.25;;;3.90;99.90;;;;;;5033794;28;20045;-81
2020/12/06 11:17:47;;;;;;;36.72;22.63;;;4.00;99.90;;;;;;5036506;28;20056;-81
2020/12/06 11:20:13;;;;;;;37.95;23.67;;;4.10;99.90;;;;;;5045577;28;20041;-82
2020/12/06 11:22:45;;;;;;;41.30;22.70;;;4.10;99.90;;;;;;5034261;28;20036;-81
2020/12/06 11:25:10;;;;;;;38.55;23.92;;;4.40;99.90;;;;;;5050500;28;20037;-81
2020/12/06 11:27:56;;;;;;;36.05;22.20;;;4.30;99.90;;;;;;5036535;28;20041;-82
2020/12/06 11:30:22;;;;;;;40.67;24.40;;;4.40;99.90;;;;;;5037577;28;20045;-82
2020/12/06 11:33:08;;;;;;;38.67;23.08;;;4.10;99.90;;;;;;5038962;28;20049;-82
2020/12/06 11:35:34;;;;;;;38.10;22.52;;;4.50;99.90;;;;;;5050822;28;20043;-81
2020/12/06 11:38:20;;;;;;;32.85;21.27;;;4.50;99.90;;;;;;5017938;28;20076;-82
2020/12/06 11:40:46;;;;;;;37.15;23.73;;;4.60;99.90;;;;;;5041779;28;20029;-82
2020/12/06 11:43:12;;;;;;;39.13;23.25;;;4.60;99.90;;;;;;5045582;28;20041;-83
2020/12/06 11:45:38;;;;;;;36.78;21.80;;;4.60;99.90;;;;;;5049140;28;20115;-81
2020/12/06 11:48:05;;;;;;;35.97;22.38;;;4.60;99.90;;;;;;5036856;28;20116;-82
2020/12/06 11:50:32;;;;;;;36.03;22.83;;;4.60;99.90;;;;;;5045330;28;20060;-82
2020/12/06 11:53:00;;;;;;;39.55;23.50;;;4.60;99.90;;;;;;5045698;28;20494;-82
2020/12/06 11:55:26;;;;;;;36.17;23.13;;;4.60;99.90;;;;;;5050357;28;20510;-82
2020/12/06 11:57:52;;;;;;;32.95;21.23;;;4.60;99.90;;;;;;5060833;28;20067;-81
2020/12/06 12:00:18;;;;;;;41.50;23.33;;;4.60;99.90;;;;;;5058229;28;20037;-82
2020/12/06 12:03:04;;;;;;;39.75;24.08;;;4.60;99.90;;;;;;5045752;28;20052;-82
2020/12/06 12:05:49;;;;;;;36.13;22.52;;;4.60;99.90;;;;;;5026755;28;20045;-82
2020/12/06 12:08:35;;;;;;;37.17;23.13;;;4.60;99.90;;;;;;5035583;28;20049;-81
2020/12/06 12:11:22;;;;;;;44.65;25.13;;;4.60;99.90;;;;;;5030592;28;20045;-81
2020/12/06 12:14:08;;;;;;;43.60;24.50;;;4.50;99.90;;;;;;5013045;28;20131;-81
2020/12/06 12:16:53;;;;;;;40.17;23.63;;;4.50;99.90;;;;;;5033765;28;20532;-81
2020/12/06 12:19:39;;;;;;;44.58;25.80;;;4.50;99.90;;;;;;5024029;28;20525;-81
2020/12/06 12:22:05;;;;;;;45.10;25.17;;;4.50;99.90;;;;;;5034871;28;20064;-81
2020/12/06 12:24:51;;;;;;;42.63;25.02;;;4.50;99.90;;;;;;5022854;28;20460;-81
2020/12/06 12:27:17;;;;;;;42.00;25.50;;;4.40;99.90;;;;;;5036652;28;20124;-81
2020/12/06 12:29:43;;;;;;;45.67;24.67;;;4.50;99.90;;;;;;5022428;28;20120;-81
2020/12/06 12:32:29;;;;;;;42.40;24.60;;;4.40;99.90;;;;;;5005445;28;20072;-81
2020/12/06 12:35:14;;;;;;;47.00;26.17;;;4.40;99.90;;;;;;5030595;28;20126;-81
2020/12/06 12:38:00;;;;;;;46.97;28.13;;;4.40;99.90;;;;;;5001483;28;20095;-81
2020/12/06 12:40:26;;;;;;;46.25;26.20;;;4.40;99.90;;;;;;5042061;28;20337;-81
2020/12/06 12:42:52;;;;;;;41.70;25.75;;;4.40;99.90;;;;;;5030547;28;20060;-81
2020/12/06 12:45:19;;;;;;;44.65;25.50;;;4.40;99.90;;;;;;5021076;28;20494;-81
2020/12/06 12:47:45;;;;;;;43.97;27.05;;;4.40;99.90;;;;;;5025330;28;20133;-81
2020/12/06 12:50:11;;;;;;;47.42;27.83;;;4.40;99.90;;;;;;5024837;28;20045;-81
2020/12/06 12:52:36;;;;;;;46.85;27.30;;;4.50;99.90;;;;;;5042951;28;20041;-81
2020/12/06 12:55:22;;;;;;;47.58;26.98;;;4.50;99.90;;;;;;5023680;28;20087;-81
2020/12/06 12:57:48;;;;;;;50.45;28.45;;;4.50;99.90;;;;;;5020685;28;20057;-81
2020/12/06 13:00:34;;;;;;;53.90;29.23;;;4.40;99.90;;;;;;5006807;28;20433;-81
2020/12/06 13:03:20;;;;;;;51.72;28.33;;;4.50;99.90;;;;;;5001009;28;20049;-81